sensor_id;sensor_type;location;lat;lon;timestamp;pressure;altitude;pressure_sealevel;temperature;humidity
71907;BME280;59781;52.090;5.030;2023-12-14T00:02:01;100963.34;;;9.84;100.00
71907;BME280;59781;52.090;5.030;2023-12-14T00:04:26;100966.03;;;9.84;100.00
71907;BME280;59781;52.090;5.030;2023-12-14T00:06:52;100977.81;;;9.91;100.00
71907;BME280;59781;52.090;5.030;2023-12-14T00:09:17;100978.94;;;10.31;100.00
71907;BME280;59781;52.090;5.030;2023-12-14T00:11:43;100985.00;;;10.25;100.00
71907;BME280;59781;52.090;5.030;2023-12-14T00:14:09;100992.50;;;10.05;100.00
71907;BME280;59781;52.090;5.030;2023-12-14T00:16:35;101002.16;;;10.24;100.00
71907;BME280;59781;52.090;5.030;2023-12-14T00:19:00;101003.88;;;10.33;100.00
71907;BME280;59781;52.090;5.030;2023-12-14T00:21:26;101001.88;;;10.43;100.00
71907;BME280;59781;52.090;5.030;2023-12-14T00:23:51;101017.50;;;10.40;100.00
71907;BME280;59781;52.090;5.030;2023-12-14T00:26:17;101010.50;;;10.21;100.00
71907;BME280;59781;52.090;5.030;2023-12-14T00:28:43;101016.88;;;10.12;100.00
71907;BME280;59781;52.090;5.030;2023-12-14T00:31:09;101016.06;;;10.19;100.00
71907;BME280;59781;52.090;5.030;2023-12-14T00:33:34;101011.94;;;10.49;100.00
71907;BME280;59781;52.090;5.030;2023-12-14T00:36:00;101029.09;;;10.40;100.00
71907;BME280;59781;52.090;5.030;2023-12-14T00:38:26;101030.03;;;10.15;100.00
71907;BME280;59781;52.090;5.030;2023-12-14T00:40:51;101035.53;;;10.55;100.00
71907;BME280;59781;52.090;5.030;2023-12-14T00:43:17;101050.19;;;10.53;100.00
71907;BME280;59781;52.090;5.030;2023-12-14T00:45:43;101045.97;;;10.08;100.00
71907;BME280;59781;52.090;5.030;2023-12-14T00:48:09;101049.81;;;10.48;100.00
71907;BME280;59781;52.090;5.030;2023-12-14T00:50:34;101059.22;;;10.01;100.00
71907;BME280;59781;52.090;5.030;2023-12-14T00:53:00;101064.19;;;9.80;100.00
71907;BME280;59781;52.090;5.030;2023-12-14T00:55:26;101072.47;;;9.87;100.00
71907;BME280;59781;52.090;5.030;2023-12-14T00:57:51;101085.44;;;10.25;100.00
71907;BME280;59781;52.090;5.030;2023-12-14T01:00:18;101088.47;;;10.30;100.00
71907;BME280;59781;52.090;5.030;2023-12-14T01:02:44;101083.91;;;9.89;100.00
71907;BME280;59781;52.090;5.030;2023-12-14T01:05:09;101083.97;;;10.47;100.00
71907;BME280;59781;52.090;5.030;2023-12-14T01:07:35;101090.72;;;10.43;100.00
71907;BME280;59781;52.090;5.030;2023-12-14T01:10:01;101092.22;;;10.46;100.00
71907;BME280;59781;52.090;5.030;2023-12-14T01:12:28;101102.00;;;9.53;100.00
71907;BME280;59781;52.090;5.030;2023-12-14T01:14:53;101100.31;;;10.46;100.00
71907;BME280;59781;52.090;5.030;2023-12-14T01:17:19;101096.09;;;10.43;100.00
71907;BME280;59781;52.090;5.030;2023-12-14T01:19:45;101102.63;;;9.98;100.00
71907;BME280;59781;52.090;5.030;2023-12-14T01:22:11;101112.28;;;10.17;100.00
71907;BME280;59781;52.090;5.030;2023-12-14T01:24:36;101116.81;;;10.17;100.00
71907;BME280;59781;52.090;5.030;2023-12-14T01:27:02;101123.88;;;10.44;100.00
71907;BME280;59781;52.090;5.030;2023-12-14T01:29:28;101127.94;;;10.14;100.00
71907;BME280;59781;52.090;5.030;2023-12-14T01:31:53;101136.06;;;9.70;100.00
71907;BME280;59781;52.090;5.030;2023-12-14T01:34:19;101128.75;;;10.48;100.00
71907;BME280;59781;52.090;5.030;2023-12-14T01:36:45;101127.78;;;10.57;100.00
71907;BME280;59781;52.090;5.030;2023-12-14T01:39:11;101134.78;;;10.34;100.00
71907;BME280;59781;52.090;5.030;2023-12-14T01:41:36;101142.06;;;10.58;100.00
71907;BME280;59781;52.090;5.030;2023-12-14T01:44:02;101144.25;;;10.20;100.00
71907;BME280;59781;52.090;5.030;2023-12-14T01:46:28;101145.72;;;10.41;100.00
71907;BME280;59781;52.090;5.030;2023-12-14T01:48:53;101154.78;;;10.82;100.00
71907;BME280;59781;52.090;5.030;2023-12-14T01:51:19;101162.50;;;10.26;100.00
71907;BME280;59781;52.090;5.030;2023-12-14T01:53:45;101168.22;;;10.23;100.00
71907;BME280;59781;52.090;5.030;2023-12-14T01:56:10;101180.19;;;10.11;100.00
71907;BME280;59781;52.090;5.030;2023-12-14T01:58:36;101183.59;;;9.87;100.00
71907;BME280;59781;52.090;5.030;2023-12-14T02:01:20;101187.25;;;10.12;100.00
71907;BME280;59781;52.090;5.030;2023-12-14T02:03:52;101188.41;;;10.27;100.00
71907;BME280;59781;52.090;5.030;2023-12-14T02:06:20;101187.91;;;9.54;100.00
71907;BME280;59781;52.090;5.030;2023-12-14T02:08:45;101203.34;;;9.96;100.00
71907;BME280;59781;52.090;5.030;2023-12-14T02:11:11;101212.19;;;9.88;100.00
71907;BME280;59781;52.090;5.030;2023-12-14T02:13:37;101216.16;;;9.76;100.00
71907;BME280;59781;52.090;5.030;2023-12-14T02:16:03;101227.34;;;10.15;100.00
71907;BME280;59781;52.090;5.030;2023-12-14T02:18:29;101234.38;;;9.90;100.00
71907;BME280;59781;52.090;5.030;2023-12-14T02:20:55;101234.44;;;10.50;100.00
71907;BME280;59781;52.090;5.030;2023-12-14T02:23:20;101230.56;;;10.45;100.00
71907;BME280;59781;52.090;5.030;2023-12-14T02:25:46;101231.72;;;10.76;100.00
71907;BME280;59781;52.090;5.030;2023-12-14T02:28:12;101237.22;;;10.67;100.00
71907;BME280;59781;52.090;5.030;2023-12-14T02:30:38;101241.84;;;10.22;100.00
71907;BME280;59781;52.090;5.030;2023-12-14T02:33:03;101252.41;;;10.42;100.00
71907;BME280;59781;52.090;5.030;2023-12-14T02:35:29;101244.63;;;10.13;100.00
71907;BME280;59781;52.090;5.030;2023-12-14T02:37:54;101250.91;;;10.21;100.00
71907;BME280;59781;52.090;5.030;2023-12-14T02:40:21;101252.75;;;10.21;100.00
71907;BME280;59781;52.090;5.030;2023-12-14T02:42:46;101252.91;;;10.37;100.00
71907;BME280;59781;52.090;5.030;2023-12-14T02:45:12;101252.13;;;10.87;100.00
71907;BME280;59781;52.090;5.030;2023-12-14T02:47:38;101256.38;;;10.55;100.00
71907;BME280;59781;52.090;5.030;2023-12-14T02:50:04;101273.97;;;9.98;100.00
71907;BME280;59781;52.090;5.030;2023-12-14T02:52:30;101271.34;;;10.24;100.00
71907;BME280;59781;52.090;5.030;2023-12-14T02:54:56;101278.03;;;10.46;100.00
71907;BME280;59781;52.090;5.030;2023-12-14T02:57:21;101276.31;;;10.19;100.00
71907;BME280;59781;52.090;5.030;2023-12-14T02:59:47;101281.34;;;10.14;100.00
71907;BME280;59781;52.090;5.030;2023-12-14T03:02:13;101276.88;;;10.04;100.00
71907;BME280;59781;52.090;5.030;2023-12-14T03:04:39;101291.16;;;10.49;100.00
71907;BME280;59781;52.090;5.030;2023-12-14T03:07:07;101287.97;;;10.45;100.00
71907;BME280;59781;52.090;5.030;2023-12-14T03:09:33;101283.53;;;10.36;100.00
71907;BME280;59781;52.090;5.030;2023-12-14T03:12:00;101285.41;;;9.74;100.00
71907;BME280;59781;52.090;5.030;2023-12-14T03:14:31;101287.69;;;10.13;100.00
71907;BME280;59781;52.090;5.030;2023-12-14T03:16:58;101294.34;;;10.00;100.00
71907;BME280;59781;52.090;5.030;2023-12-14T03:19:23;101285.34;;;9.92;100.00
71907;BME280;59781;52.090;5.030;2023-12-14T03:21:49;101290.59;;;10.19;100.00
71907;BME280;59781;52.090;5.030;2023-12-14T03:24:15;101293.47;;;9.74;100.00
71907;BME280;59781;52.090;5.030;2023-12-14T03:26:40;101292.56;;;9.91;100.00
71907;BME280;59781;52.090;5.030;2023-12-14T03:29:06;101285.38;;;10.18;100.00
71907;BME280;59781;52.090;5.030;2023-12-14T03:31:33;101294.66;;;9.80;100.00
71907;BME280;59781;52.090;5.030;2023-12-14T03:34:00;101285.31;;;9.84;100.00
71907;BME280;59781;52.090;5.030;2023-12-14T03:36:26;101290.97;;;9.98;100.00
71907;BME280;59781;52.090;5.030;2023-12-14T03:38:53;101299.59;;;9.66;100.00
71907;BME280;59781;52.090;5.030;2023-12-14T03:41:19;101292.91;;;9.70;100.00
71907;BME280;59781;52.090;5.030;2023-12-14T03:43:45;101297.66;;;9.41;100.00
71907;BME280;59781;52.090;5.030;2023-12-14T03:46:11;101298.69;;;9.58;100.00
71907;BME280;59781;52.090;5.030;2023-12-14T03:48:37;101304.34;;;9.72;100.00
71907;BME280;59781;52.090;5.030;2023-12-14T03:51:03;101309.88;;;9.71;100.00
71907;BME280;59781;52.090;5.030;2023-12-14T03:53:30;101320.81;;;9.69;100.00
71907;BME280;59781;52.090;5.030;2023-12-14T03:55:58;101322.88;;;9.75;100.00
71907;BME280;59781;52.090;5.030;2023-12-14T03:58:23;101314.34;;;9.80;100.00
71907;BME280;59781;52.090;5.030;2023-12-14T04:00:49;101316.75;;;9.65;100.00
71907;BME280;59781;52.090;5.030;2023-12-14T04:03:15;101320.72;;;9.79;100.00
71907;BME280;59781;52.090;5.030;2023-12-14T04:05:40;101331.31;;;9.81;100.00
71907;BME280;59781;52.090;5.030;2023-12-14T04:08:06;101333.38;;;9.51;100.00
71907;BME280;59781;52.090;5.030;2023-12-14T04:10:32;101333.94;;;10.08;100.00
71907;BME280;59781;52.090;5.030;2023-12-14T04:12:58;101333.81;;;9.74;100.00
71907;BME280;59781;52.090;5.030;2023-12-14T04:15:23;101346.00;;;9.68;100.00
71907;BME280;59781;52.090;5.030;2023-12-14T04:17:49;101354.69;;;9.80;100.00
71907;BME280;59781;52.090;5.030;2023-12-14T04:20:15;101358.00;;;9.74;100.00
71907;BME280;59781;52.090;5.030;2023-12-14T04:22:43;101364.59;;;9.80;100.00
71907;BME280;59781;52.090;5.030;2023-12-14T04:25:09;101362.84;;;9.70;100.00
71907;BME280;59781;52.090;5.030;2023-12-14T04:27:35;101366.69;;;9.68;100.00
71907;BME280;59781;52.090;5.030;2023-12-14T04:30:00;101358.78;;;9.84;100.00
71907;BME280;59781;52.090;5.030;2023-12-14T04:32:27;101361.16;;;9.69;100.00
71907;BME280;59781;52.090;5.030;2023-12-14T04:34:52;101380.31;;;9.84;100.00
71907;BME280;59781;52.090;5.030;2023-12-14T04:37:18;101384.88;;;9.56;100.00
71907;BME280;59781;52.090;5.030;2023-12-14T04:39:44;101385.59;;;9.76;100.00
71907;BME280;59781;52.090;5.030;2023-12-14T04:42:10;101392.13;;;9.73;100.00
71907;BME280;59781;52.090;5.030;2023-12-14T04:44:35;101392.63;;;9.59;100.00
71907;BME280;59781;52.090;5.030;2023-12-14T04:47:01;101406.50;;;10.00;100.00
71907;BME280;59781;52.090;5.030;2023-12-14T04:49:27;101408.44;;;9.44;100.00
71907;BME280;59781;52.090;5.030;2023-12-14T04:51:52;101411.50;;;9.77;100.00
71907;BME280;59781;52.090;5.030;2023-12-14T04:54:18;101423.78;;;9.80;100.00
71907;BME280;59781;52.090;5.030;2023-12-14T04:56:46;101440.78;;;9.80;100.00
71907;BME280;59781;52.090;5.030;2023-12-14T04:59:12;101449.44;;;9.19;100.00
71907;BME280;59781;52.090;5.030;2023-12-14T05:01:38;101451.59;;;9.43;100.00
71907;BME280;59781;52.090;5.030;2023-12-14T05:04:03;101444.72;;;9.86;100.00
71907;BME280;59781;52.090;5.030;2023-12-14T05:06:29;101451.31;;;9.91;100.00
71907;BME280;59781;52.090;5.030;2023-12-14T05:08:55;101450.38;;;9.83;100.00
71907;BME280;59781;52.090;5.030;2023-12-14T05:11:21;101459.66;;;9.43;100.00
71907;BME280;59781;52.090;5.030;2023-12-14T05:13:46;101453.84;;;9.93;100.00
71907;BME280;59781;52.090;5.030;2023-12-14T05:16:13;101471.09;;;9.55;100.00
71907;BME280;59781;52.090;5.030;2023-12-14T05:18:39;101476.50;;;9.45;100.00
71907;BME280;59781;52.090;5.030;2023-12-14T05:21:06;101493.16;;;9.48;100.00
71907;BME280;59781;52.090;5.030;2023-12-14T05:23:32;101497.16;;;9.44;100.00
71907;BME280;59781;52.090;5.030;2023-12-14T05:25:57;101503.03;;;9.20;100.00
71907;BME280;59781;52.090;5.030;2023-12-14T05:28:23;101513.00;;;8.91;100.00
71907;BME280;59781;52.090;5.030;2023-12-14T05:30:48;101498.19;;;9.61;100.00
71907;BME280;59781;52.090;5.030;2023-12-14T05:33:14;101495.63;;;9.97;100.00
71907;BME280;59781;52.090;5.030;2023-12-14T05:35:40;101496.66;;;9.59;100.00
71907;BME280;59781;52.090;5.030;2023-12-14T05:38:05;101509.44;;;9.84;100.00
71907;BME280;59781;52.090;5.030;2023-12-14T05:40:31;101510.59;;;9.72;100.00
71907;BME280;59781;52.090;5.030;2023-12-14T05:42:57;101512.06;;;10.12;100.00
71907;BME280;59781;52.090;5.030;2023-12-14T05:45:23;101519.53;;;9.72;100.00
71907;BME280;59781;52.090;5.030;2023-12-14T05:47:48;101522.28;;;9.53;100.00
71907;BME280;59781;52.090;5.030;2023-12-14T05:50:14;101524.84;;;9.82;100.00
71907;BME280;59781;52.090;5.030;2023-12-14T05:52:40;101525.69;;;10.10;100.00
71907;BME280;59781;52.090;5.030;2023-12-14T05:55:09;101528.38;;;9.83;100.00
71907;BME280;59781;52.090;5.030;2023-12-14T05:57:38;101536.53;;;9.36;100.00
71907;BME280;59781;52.090;5.030;2023-12-14T06:00:05;101536.53;;;9.63;100.00
71907;BME280;59781;52.090;5.030;2023-12-14T06:02:32;101542.84;;;9.54;100.00
71907;BME280;59781;52.090;5.030;2023-12-14T06:04:58;101548.09;;;9.46;100.00
71907;BME280;59781;52.090;5.030;2023-12-14T06:07:24;101540.16;;;9.54;100.00
71907;BME280;59781;52.090;5.030;2023-12-14T06:09:50;101549.16;;;9.26;100.00
71907;BME280;59781;52.090;5.030;2023-12-14T06:12:16;101555.53;;;9.25;100.00
71907;BME280;59781;52.090;5.030;2023-12-14T06:14:41;101563.72;;;9.04;100.00
71907;BME280;59781;52.090;5.030;2023-12-14T06:17:07;101564.00;;;9.10;100.00
71907;BME280;59781;52.090;5.030;2023-12-14T06:19:33;101559.06;;;9.62;100.00
71907;BME280;59781;52.090;5.030;2023-12-14T06:21:58;101565.41;;;9.71;100.00
71907;BME280;59781;52.090;5.030;2023-12-14T06:24:24;101570.31;;;9.38;100.00
71907;BME280;59781;52.090;5.030;2023-12-14T06:26:50;101579.50;;;9.55;100.00
71907;BME280;59781;52.090;5.030;2023-12-14T06:29:15;101590.47;;;9.25;100.00
71907;BME280;59781;52.090;5.030;2023-12-14T06:31:41;101592.56;;;9.11;100.00
71907;BME280;59781;52.090;5.030;2023-12-14T06:34:07;101606.09;;;9.48;100.00
71907;BME280;59781;52.090;5.030;2023-12-14T06:36:33;101610.53;;;9.11;100.00
71907;BME280;59781;52.090;5.030;2023-12-14T06:39:01;101616.91;;;9.00;100.00
71907;BME280;59781;52.090;5.030;2023-12-14T06:41:28;101627.06;;;9.35;100.00
71907;BME280;59781;52.090;5.030;2023-12-14T06:43:55;101635.56;;;9.31;100.00
71907;BME280;59781;52.090;5.030;2023-12-14T06:46:21;101643.91;;;8.79;100.00
71907;BME280;59781;52.090;5.030;2023-12-14T06:48:47;101649.84;;;8.73;100.00
71907;BME280;59781;52.090;5.030;2023-12-14T06:51:14;101649.13;;;8.61;100.00
71907;BME280;59781;52.090;5.030;2023-12-14T06:53:42;101654.53;;;9.29;100.00
71907;BME280;59781;52.090;5.030;2023-12-14T06:56:09;101655.44;;;9.76;100.00
71907;BME280;59781;52.090;5.030;2023-12-14T06:58:40;101658.91;;;9.11;100.00
71907;BME280;59781;52.090;5.030;2023-12-14T07:01:14;101664.88;;;9.14;100.00
71907;BME280;59781;52.090;5.030;2023-12-14T07:03:42;101645.09;;;9.72;100.00
71907;BME280;59781;52.090;5.030;2023-12-14T07:06:16;101656.97;;;9.79;100.00
71907;BME280;59781;52.090;5.030;2023-12-14T07:08:43;101668.19;;;9.74;100.00
71907;BME280;59781;52.090;5.030;2023-12-14T07:11:10;101664.41;;;9.48;100.00
71907;BME280;59781;52.090;5.030;2023-12-14T07:13:36;101667.13;;;9.00;100.00
71907;BME280;59781;52.090;5.030;2023-12-14T07:16:07;101675.19;;;9.00;100.00
71907;BME280;59781;52.090;5.030;2023-12-14T07:18:35;101676.00;;;9.58;100.00
71907;BME280;59781;52.090;5.030;2023-12-14T07:21:02;101682.38;;;9.57;100.00
71907;BME280;59781;52.090;5.030;2023-12-14T07:23:28;101693.84;;;9.49;100.00
71907;BME280;59781;52.090;5.030;2023-12-14T07:25:54;101678.69;;;10.15;100.00
71907;BME280;59781;52.090;5.030;2023-12-14T07:28:21;101683.25;;;10.04;100.00
71907;BME280;59781;52.090;5.030;2023-12-14T07:30:47;101683.34;;;10.13;100.00
71907;BME280;59781;52.090;5.030;2023-12-14T07:33:14;101696.66;;;9.58;100.00
71907;BME280;59781;52.090;5.030;2023-12-14T07:35:40;101703.34;;;9.44;100.00
71907;BME280;59781;52.090;5.030;2023-12-14T07:38:06;101707.59;;;9.27;100.00
71907;BME280;59781;52.090;5.030;2023-12-14T07:40:32;101706.44;;;9.49;100.00
71907;BME280;59781;52.090;5.030;2023-12-14T07:42:58;101716.63;;;9.45;100.00
71907;BME280;59781;52.090;5.030;2023-12-14T07:45:23;101720.69;;;8.91;100.00
71907;BME280;59781;52.090;5.030;2023-12-14T07:47:49;101721.88;;;9.37;100.00
71907;BME280;59781;52.090;5.030;2023-12-14T07:50:15;101735.63;;;8.34;100.00
71907;BME280;59781;52.090;5.030;2023-12-14T07:52:41;101723.81;;;9.84;100.00
71907;BME280;59781;52.090;5.030;2023-12-14T07:55:07;101728.09;;;9.57;100.00
71907;BME280;59781;52.090;5.030;2023-12-14T07:57:33;101730.94;;;9.27;100.00
71907;BME280;59781;52.090;5.030;2023-12-14T07:59:59;101746.34;;;8.55;100.00
71907;BME280;59781;52.090;5.030;2023-12-14T08:02:25;101749.81;;;8.86;100.00
71907;BME280;59781;52.090;5.030;2023-12-14T08:04:50;101748.91;;;9.45;100.00
71907;BME280;59781;52.090;5.030;2023-12-14T08:07:16;101752.44;;;8.67;100.00
71907;BME280;59781;52.090;5.030;2023-12-14T08:09:41;101749.41;;;9.01;100.00
71907;BME280;59781;52.090;5.030;2023-12-14T08:12:07;101745.47;;;9.43;100.00
71907;BME280;59781;52.090;5.030;2023-12-14T08:14:33;101745.19;;;9.75;100.00
71907;BME280;59781;52.090;5.030;2023-12-14T08:17:01;101736.84;;;9.49;100.00
71907;BME280;59781;52.090;5.030;2023-12-14T08:19:27;101745.47;;;9.63;100.00
71907;BME280;59781;52.090;5.030;2023-12-14T08:21:53;101743.53;;;9.36;100.00
71907;BME280;59781;52.090;5.030;2023-12-14T08:24:18;101757.22;;;9.23;100.00
71907;BME280;59781;52.090;5.030;2023-12-14T08:26:44;101761.50;;;9.55;100.00
71907;BME280;59781;52.090;5.030;2023-12-14T08:29:10;101761.91;;;9.40;100.00
71907;BME280;59781;52.090;5.030;2023-12-14T08:31:35;101765.03;;;9.45;100.00
71907;BME280;59781;52.090;5.030;2023-12-14T08:34:01;101767.28;;;9.50;100.00
71907;BME280;59781;52.090;5.030;2023-12-14T08:36:29;101780.72;;;9.60;100.00
71907;BME280;59781;52.090;5.030;2023-12-14T08:38:55;101796.44;;;9.45;100.00
71907;BME280;59781;52.090;5.030;2023-12-14T08:41:20;101790.22;;;9.25;100.00
71907;BME280;59781;52.090;5.030;2023-12-14T08:43:46;101788.50;;;9.43;100.00
71907;BME280;59781;52.090;5.030;2023-12-14T08:46:12;101799.09;;;9.16;100.00
71907;BME280;59781;52.090;5.030;2023-12-14T08:48:37;101810.84;;;9.15;100.00
71907;BME280;59781;52.090;5.030;2023-12-14T08:51:03;101810.31;;;9.60;100.00
71907;BME280;59781;52.090;5.030;2023-12-14T08:53:30;101809.06;;;9.73;100.00
71907;BME280;59781;52.090;5.030;2023-12-14T08:55:55;101813.84;;;9.60;100.00
71907;BME280;59781;52.090;5.030;2023-12-14T08:58:21;101824.59;;;9.60;100.00
71907;BME280;59781;52.090;5.030;2023-12-14T09:00:47;101813.13;;;9.97;100.00
71907;BME280;59781;52.090;5.030;2023-12-14T09:03:20;101819.50;;;10.05;100.00
71907;BME280;59781;52.090;5.030;2023-12-14T09:05:46;101821.59;;;10.21;100.00
71907;BME280;59781;52.090;5.030;2023-12-14T09:08:12;101816.13;;;10.60;100.00
71907;BME280;59781;52.090;5.030;2023-12-14T09:10:40;101817.66;;;10.25;100.00
71907;BME280;59781;52.090;5.030;2023-12-14T09:13:06;101826.53;;;10.45;100.00
71907;BME280;59781;52.090;5.030;2023-12-14T09:15:32;101838.59;;;10.12;100.00
71907;BME280;59781;52.090;5.030;2023-12-14T09:17:59;101846.84;;;9.91;100.00
71907;BME280;59781;52.090;5.030;2023-12-14T09:20:25;101848.41;;;10.32;100.00
71907;BME280;59781;52.090;5.030;2023-12-14T09:22:50;101863.56;;;10.04;100.00
71907;BME280;59781;52.090;5.030;2023-12-14T09:25:16;101853.69;;;11.26;100.00
71907;BME280;59781;52.090;5.030;2023-12-14T09:27:43;101858.78;;;11.74;100.00
71907;BME280;59781;52.090;5.030;2023-12-14T09:30:09;101864.69;;;11.42;100.00
71907;BME280;59781;52.090;5.030;2023-12-14T09:32:36;101875.41;;;10.97;100.00
71907;BME280;59781;52.090;5.030;2023-12-14T09:35:02;101871.94;;;10.77;100.00
71907;BME280;59781;52.090;5.030;2023-12-14T09:37:27;101872.56;;;11.26;100.00
71907;BME280;59781;52.090;5.030;2023-12-14T09:39:53;101879.28;;;10.85;100.00
71907;BME280;59781;52.090;5.030;2023-12-14T09:42:20;101873.81;;;10.67;100.00
71907;BME280;59781;52.090;5.030;2023-12-14T09:44:47;101881.72;;;10.78;100.00
71907;BME280;59781;52.090;5.030;2023-12-14T09:47:13;101887.09;;;10.78;100.00
71907;BME280;59781;52.090;5.030;2023-12-14T09:49:41;101885.47;;;11.32;100.00
71907;BME280;59781;52.090;5.030;2023-12-14T09:52:09;101889.09;;;10.76;100.00
71907;BME280;59781;52.090;5.030;2023-12-14T09:54:35;101903.44;;;10.77;100.00
71907;BME280;59781;52.090;5.030;2023-12-14T09:57:00;101909.44;;;10.13;100.00
71907;BME280;59781;52.090;5.030;2023-12-14T09:59:26;101902.66;;;10.94;100.00
71907;BME280;59781;52.090;5.030;2023-12-14T10:01:52;101900.16;;;11.10;100.00
71907;BME280;59781;52.090;5.030;2023-12-14T10:04:19;101916.53;;;10.62;100.00
71907;BME280;59781;52.090;5.030;2023-12-14T10:06:48;101913.06;;;10.70;100.00
71907;BME280;59781;52.090;5.030;2023-12-14T10:09:14;101917.06;;;10.66;100.00
71907;BME280;59781;52.090;5.030;2023-12-14T10:11:42;101916.38;;;10.63;100.00
71907;BME280;59781;52.090;5.030;2023-12-14T10:14:22;101926.63;;;11.62;100.00
71907;BME280;59781;52.090;5.030;2023-12-14T10:16:52;101921.78;;;11.01;100.00
71907;BME280;59781;52.090;5.030;2023-12-14T10:19:19;101924.44;;;11.10;100.00
71907;BME280;59781;52.090;5.030;2023-12-14T10:21:49;101925.00;;;10.67;100.00
71907;BME280;59781;52.090;5.030;2023-12-14T10:24:17;101926.19;;;10.45;100.00
71907;BME280;59781;52.090;5.030;2023-12-14T10:26:45;101916.78;;;11.43;100.00
71907;BME280;59781;52.090;5.030;2023-12-14T10:29:11;101928.28;;;10.51;100.00
71907;BME280;59781;52.090;5.030;2023-12-14T10:31:37;101928.34;;;10.88;100.00
71907;BME280;59781;52.090;5.030;2023-12-14T10:34:06;101933.34;;;10.83;100.00
71907;BME280;59781;52.090;5.030;2023-12-14T10:36:32;101939.16;;;10.69;100.00
71907;BME280;59781;52.090;5.030;2023-12-14T10:39:00;101944.78;;;10.95;100.00
71907;BME280;59781;52.090;5.030;2023-12-14T10:41:27;101936.22;;;11.09;100.00
71907;BME280;59781;52.090;5.030;2023-12-14T10:43:55;101940.75;;;10.72;100.00
71907;BME280;59781;52.090;5.030;2023-12-14T10:46:23;101940.63;;;11.01;100.00
71907;BME280;59781;52.090;5.030;2023-12-14T10:48:51;101941.47;;;10.06;100.00
71907;BME280;59781;52.090;5.030;2023-12-14T10:51:21;101952.50;;;10.61;100.00
71907;BME280;59781;52.090;5.030;2023-12-14T10:53:49;101947.84;;;11.47;100.00
71907;BME280;59781;52.090;5.030;2023-12-14T10:56:18;101945.50;;;10.87;100.00
71907;BME280;59781;52.090;5.030;2023-12-14T10:58:51;101951.72;;;10.98;100.00
71907;BME280;59781;52.090;5.030;2023-12-14T11:01:21;101954.09;;;10.63;100.00
71907;BME280;59781;52.090;5.030;2023-12-14T11:03:53;101959.06;;;10.39;100.00
71907;BME280;59781;52.090;5.030;2023-12-14T11:06:27;101962.59;;;10.49;100.00
71907;BME280;59781;52.090;5.030;2023-12-14T11:09:01;101964.28;;;10.41;100.00
71907;BME280;59781;52.090;5.030;2023-12-14T11:14:19;101967.63;;;10.91;100.00
71907;BME280;59781;52.090;5.030;2023-12-14T11:16:48;101959.25;;;11.04;100.00
71907;BME280;59781;52.090;5.030;2023-12-14T11:21:48;101962.72;;;10.67;100.00
71907;BME280;59781;52.090;5.030;2023-12-14T11:24:37;101970.44;;;10.99;100.00
71907;BME280;59781;52.090;5.030;2023-12-14T11:27:07;101975.59;;;10.83;100.00
71907;BME280;59781;52.090;5.030;2023-12-14T11:29:36;101973.81;;;10.45;100.00
71907;BME280;59781;52.090;5.030;2023-12-14T11:32:02;101966.41;;;10.66;100.00
71907;BME280;59781;52.090;5.030;2023-12-14T11:34:29;101968.69;;;10.32;100.00
71907;BME280;59781;52.090;5.030;2023-12-14T11:36:55;101974.78;;;10.63;100.00
71907;BME280;59781;52.090;5.030;2023-12-14T11:39:20;101974.78;;;10.15;100.00
71907;BME280;59781;52.090;5.030;2023-12-14T11:42:05;101984.16;;;11.53;100.00
71907;BME280;59781;52.090;5.030;2023-12-14T11:44:34;101988.75;;;10.96;100.00
71907;BME280;59781;52.090;5.030;2023-12-14T11:47:00;101993.94;;;11.16;100.00
71907;BME280;59781;52.090;5.030;2023-12-14T11:49:26;101998.06;;;10.45;100.00
71907;BME280;59781;52.090;5.030;2023-12-14T11:51:54;101998.63;;;11.24;100.00
71907;BME280;59781;52.090;5.030;2023-12-14T11:54:21;102003.91;;;11.06;100.00
71907;BME280;59781;52.090;5.030;2023-12-14T11:56:47;101999.56;;;10.86;100.00
71907;BME280;59781;52.090;5.030;2023-12-14T11:59:17;102006.09;;;10.83;100.00
71907;BME280;59781;52.090;5.030;2023-12-14T12:01:57;102001.34;;;11.52;100.00
71907;BME280;59781;52.090;5.030;2023-12-14T12:04:25;102008.09;;;11.65;100.00
71907;BME280;59781;52.090;5.030;2023-12-14T12:07:04;102011.44;;;11.12;100.00
71907;BME280;59781;52.090;5.030;2023-12-14T12:09:35;102005.66;;;10.78;100.00
71907;BME280;59781;52.090;5.030;2023-12-14T12:12:05;102018.00;;;10.52;100.00
71907;BME280;59781;52.090;5.030;2023-12-14T12:14:31;102016.41;;;10.98;100.00
71907;BME280;59781;52.090;5.030;2023-12-14T12:16:57;102012.88;;;10.97;100.00
71907;BME280;59781;52.090;5.030;2023-12-14T12:19:22;102014.19;;;11.30;100.00
71907;BME280;59781;52.090;5.030;2023-12-14T12:21:49;102017.75;;;10.74;100.00
71907;BME280;59781;52.090;5.030;2023-12-14T12:24:14;102008.47;;;10.96;100.00
71907;BME280;59781;52.090;5.030;2023-12-14T12:26:40;102011.47;;;10.93;100.00
71907;BME280;59781;52.090;5.030;2023-12-14T12:29:05;102013.56;;;11.09;100.00
71907;BME280;59781;52.090;5.030;2023-12-14T12:31:32;102007.94;;;10.93;100.00
71907;BME280;59781;52.090;5.030;2023-12-14T12:33:58;102016.28;;;11.46;100.00
71907;BME280;59781;52.090;5.030;2023-12-14T12:36:24;102014.47;;;11.37;100.00
71907;BME280;59781;52.090;5.030;2023-12-14T12:38:50;102017.66;;;11.23;100.00
71907;BME280;59781;52.090;5.030;2023-12-14T12:41:16;102015.19;;;10.73;100.00
71907;BME280;59781;52.090;5.030;2023-12-14T12:43:43;102017.28;;;10.88;100.00
71907;BME280;59781;52.090;5.030;2023-12-14T12:46:09;102017.72;;;10.84;100.00
71907;BME280;59781;52.090;5.030;2023-12-14T12:48:36;102017.59;;;10.85;100.00